sensor_id;sensor_type;location;lat;lon;timestamp;P1;durP1;ratioP1;P2;durP2;ratioP2
61869;SDS011;47810;42.264;23.826;2024-02-23T00:04:39;5.25;;;3.25;;
61869;SDS011;47810;42.264;23.826;2024-02-23T00:07:11;4.38;;;1.88;;
61869;SDS011;47810;42.264;23.826;2024-02-23T00:14:48;5.13;;;2.75;;
61869;SDS011;47810;42.264;23.826;2024-02-23T00:17:20;4.43;;;2.45;;
61869;SDS011;47810;42.264;23.826;2024-02-23T00:19:48;5.18;;;2.60;;
61869;SDS011;47810;42.264;23.826;2024-02-23T00:22:24;5.10;;;3.85;;
61869;SDS011;47810;42.264;23.826;2024-02-23T00:25:00;7.95;;;4.50;;
61869;SDS011;47810;42.264;23.826;2024-02-23T00:27:28;5.70;;;4.45;;
61869;SDS011;47810;42.264;23.826;2024-02-23T00:29:56;5.38;;;4.75;;
61869;SDS011;47810;42.264;23.826;2024-02-23T00:35:00;4.53;;;2.33;;
61869;SDS011;47810;42.264;23.826;2024-02-23T00:37:28;2.83;;;1.83;;
61869;SDS011;47810;42.264;23.826;2024-02-23T00:42:42;3.10;;;2.50;;
61869;SDS011;47810;42.264;23.826;2024-02-23T00:45:18;3.17;;;2.85;;
61869;SDS011;47810;42.264;23.826;2024-02-23T00:47:48;5.57;;;2.33;;
61869;SDS011;47810;42.264;23.826;2024-02-23T00:50:24;4.00;;;2.38;;
61869;SDS011;47810;42.264;23.826;2024-02-23T00:52:54;3.80;;;1.55;;
61869;SDS011;47810;42.264;23.826;2024-02-23T00:55:24;2.15;;;1.65;;
61869;SDS011;47810;42.264;23.826;2024-02-23T00:57:59;4.10;;;2.15;;
61869;SDS011;47810;42.264;23.826;2024-02-23T01:03:16;14.90;;;5.30;;
61869;SDS011;47810;42.264;23.826;2024-02-23T01:05:44;10.25;;;5.43;;
61869;SDS011;47810;42.264;23.826;2024-02-23T01:08:10;6.47;;;4.25;;
61869;SDS011;47810;42.264;23.826;2024-02-23T01:10:47;6.10;;;3.90;;
61869;SDS011;47810;42.264;23.826;2024-02-23T01:13:14;5.47;;;3.30;;
61869;SDS011;47810;42.264;23.826;2024-02-23T01:15:42;7.30;;;3.40;;
61869;SDS011;47810;42.264;23.826;2024-02-23T01:18:10;6.43;;;4.47;;
61869;SDS011;47810;42.264;23.826;2024-02-23T01:20:36;7.10;;;3.70;;
61869;SDS011;47810;42.264;23.826;2024-02-23T01:23:01;3.13;;;2.42;;
61869;SDS011;47810;42.264;23.826;2024-02-23T01:25:29;3.67;;;2.70;;
61869;SDS011;47810;42.264;23.826;2024-02-23T01:33:22;5.32;;;4.07;;
61869;SDS011;47810;42.264;23.826;2024-02-23T01:36:01;5.80;;;2.78;;
61869;SDS011;47810;42.264;23.826;2024-02-23T01:38:33;3.65;;;2.17;;
61869;SDS011;47810;42.264;23.826;2024-02-23T01:41:08;5.15;;;2.47;;
61869;SDS011;47810;42.264;23.826;2024-02-23T01:43:37;6.10;;;2.00;;
61869;SDS011;47810;42.264;23.826;2024-02-23T01:46:09;2.47;;;1.88;;
61869;SDS011;47810;42.264;23.826;2024-02-23T01:48:45;4.28;;;2.67;;
61869;SDS011;47810;42.264;23.826;2024-02-23T01:57:58;4.95;;;1.80;;
61869;SDS011;47810;42.264;23.826;2024-02-23T02:06:13;2.70;;;1.90;;
61869;SDS011;47810;42.264;23.826;2024-02-23T02:08:46;4.05;;;2.05;;
61869;SDS011;47810;42.264;23.826;2024-02-23T02:19:06;3.10;;;1.80;;
61869;SDS011;47810;42.264;23.826;2024-02-23T02:26:47;4.22;;;2.60;;
61869;SDS011;47810;42.264;23.826;2024-02-23T02:29:23;2.67;;;2.15;;
61869;SDS011;47810;42.264;23.826;2024-02-23T02:35:16;2.65;;;2.15;;
61869;SDS011;47810;42.264;23.826;2024-02-23T02:37:54;1.95;;;1.55;;
61869;SDS011;47810;42.264;23.826;2024-02-23T02:47:00;2.65;;;2.30;;
61869;SDS011;47810;42.264;23.826;2024-02-23T02:49:34;3.00;;;2.53;;
61869;SDS011;47810;42.264;23.826;2024-02-23T02:52:09;3.33;;;2.58;;
61869;SDS011;47810;42.264;23.826;2024-02-23T02:54:37;4.35;;;2.40;;
61869;SDS011;47810;42.264;23.826;2024-02-23T02:59:34;1.48;;;1.13;;
61869;SDS011;47810;42.264;23.826;2024-02-23T03:02:19;3.70;;;2.25;;
61869;SDS011;47810;42.264;23.826;2024-02-23T03:04:50;4.38;;;3.08;;
61869;SDS011;47810;42.264;23.826;2024-02-23T03:12:52;3.75;;;2.67;;
61869;SDS011;47810;42.264;23.826;2024-02-23T03:22:38;3.65;;;2.80;;
61869;SDS011;47810;42.264;23.826;2024-02-23T03:27:41;4.13;;;2.47;;
61869;SDS011;47810;42.264;23.826;2024-02-23T03:30:13;3.38;;;2.13;;
61869;SDS011;47810;42.264;23.826;2024-02-23T03:32:42;5.35;;;2.03;;
61869;SDS011;47810;42.264;23.826;2024-02-23T03:35:20;3.05;;;2.72;;
61869;SDS011;47810;42.264;23.826;2024-02-23T03:37:48;1.55;;;1.38;;
61869;SDS011;47810;42.264;23.826;2024-02-23T03:42:53;3.72;;;2.25;;
61869;SDS011;47810;42.264;23.826;2024-02-23T03:45:25;3.55;;;2.80;;
61869;SDS011;47810;42.264;23.826;2024-02-23T03:47:51;3.75;;;3.10;;
61869;SDS011;47810;42.264;23.826;2024-02-23T03:50:23;3.58;;;3.17;;
61869;SDS011;47810;42.264;23.826;2024-02-23T03:52:49;4.22;;;2.88;;
61869;SDS011;47810;42.264;23.826;2024-02-23T03:55:19;4.15;;;2.35;;
61869;SDS011;47810;42.264;23.826;2024-02-23T03:57:45;3.15;;;2.38;;
61869;SDS011;47810;42.264;23.826;2024-02-23T04:03:11;5.28;;;2.88;;
61869;SDS011;47810;42.264;23.826;2024-02-23T04:05:46;8.18;;;4.57;;
61869;SDS011;47810;42.264;23.826;2024-02-23T04:08:19;10.30;;;5.00;;
61869;SDS011;47810;42.264;23.826;2024-02-23T04:13:21;11.57;;;6.07;;
61869;SDS011;47810;42.264;23.826;2024-02-23T04:18:27;8.43;;;5.70;;
61869;SDS011;47810;42.264;23.826;2024-02-23T04:20:55;9.43;;;6.75;;
61869;SDS011;47810;42.264;23.826;2024-02-23T04:23:21;8.60;;;5.03;;
61869;SDS011;47810;42.264;23.826;2024-02-23T04:25:46;2.50;;;2.30;;
61869;SDS011;47810;42.264;23.826;2024-02-23T04:30:43;14.48;;;8.35;;
61869;SDS011;47810;42.264;23.826;2024-02-23T04:33:09;22.67;;;18.00;;
61869;SDS011;47810;42.264;23.826;2024-02-23T04:35:38;20.88;;;11.85;;
61869;SDS011;47810;42.264;23.826;2024-02-23T04:40:41;4.82;;;3.70;;
61869;SDS011;47810;42.264;23.826;2024-02-23T04:43:08;4.22;;;2.50;;
61869;SDS011;47810;42.264;23.826;2024-02-23T04:48:39;5.50;;;3.17;;
61869;SDS011;47810;42.264;23.826;2024-02-23T04:53:59;12.35;;;5.70;;
61869;SDS011;47810;42.264;23.826;2024-02-23T04:56:27;6.35;;;5.03;;
61869;SDS011;47810;42.264;23.826;2024-02-23T04:58:53;10.48;;;4.65;;
61869;SDS011;47810;42.264;23.826;2024-02-23T05:01:20;9.00;;;4.97;;
61869;SDS011;47810;42.264;23.826;2024-02-23T05:03:48;9.77;;;5.90;;
61869;SDS011;47810;42.264;23.826;2024-02-23T05:08:43;20.80;;;12.75;;
61869;SDS011;47810;42.264;23.826;2024-02-23T05:13:40;12.80;;;10.45;;
61869;SDS011;47810;42.264;23.826;2024-02-23T05:16:22;15.32;;;11.00;;
61869;SDS011;47810;42.264;23.826;2024-02-23T05:18:48;20.48;;;9.10;;
61869;SDS011;47810;42.264;23.826;2024-02-23T05:21:17;10.93;;;8.52;;
61869;SDS011;47810;42.264;23.826;2024-02-23T05:23:43;15.93;;;11.75;;
61869;SDS011;47810;42.264;23.826;2024-02-23T05:26:13;12.93;;;9.13;;
61869;SDS011;47810;42.264;23.826;2024-02-23T05:34:15;9.63;;;4.43;;
61869;SDS011;47810;42.264;23.826;2024-02-23T05:36:40;20.55;;;10.52;;
61869;SDS011;47810;42.264;23.826;2024-02-23T05:39:10;24.20;;;10.88;;
61869;SDS011;47810;42.264;23.826;2024-02-23T05:49:25;9.68;;;4.95;;
61869;SDS011;47810;42.264;23.826;2024-02-23T05:51:54;10.55;;;4.75;;
61869;SDS011;47810;42.264;23.826;2024-02-23T05:59:59;12.45;;;4.97;;
61869;SDS011;47810;42.264;23.826;2024-02-23T06:02:27;16.55;;;10.60;;
61869;SDS011;47810;42.264;23.826;2024-02-23T06:07:30;15.90;;;9.88;;
61869;SDS011;47810;42.264;23.826;2024-02-23T06:09:59;26.27;;;13.45;;
61869;SDS011;47810;42.264;23.826;2024-02-23T06:12:26;49.72;;;21.17;;
61869;SDS011;47810;42.264;23.826;2024-02-23T06:14:52;32.60;;;16.65;;
61869;SDS011;47810;42.264;23.826;2024-02-23T06:17:18;23.60;;;14.27;;
61869;SDS011;47810;42.264;23.826;2024-02-23T06:19:47;18.83;;;12.15;;
61869;SDS011;47810;42.264;23.826;2024-02-23T06:22:14;22.58;;;12.45;;
61869;SDS011;47810;42.264;23.826;2024-02-23T06:24:47;24.15;;;16.08;;
61869;SDS011;47810;42.264;23.826;2024-02-23T06:29:44;27.08;;;15.57;;
61869;SDS011;47810;42.264;23.826;2024-02-23T06:34:48;24.85;;;13.88;;
61869;SDS011;47810;42.264;23.826;2024-02-23T06:37:16;22.95;;;14.25;;
61869;SDS011;47810;42.264;23.826;2024-02-23T06:39:42;22.75;;;14.05;;
61869;SDS011;47810;42.264;23.826;2024-02-23T06:42:15;15.60;;;9.98;;
61869;SDS011;47810;42.264;23.826;2024-02-23T06:49:52;10.30;;;7.03;;
61869;SDS011;47810;42.264;23.826;2024-02-23T07:02:36;14.68;;;8.80;;
61869;SDS011;47810;42.264;23.826;2024-02-23T07:05:04;18.15;;;9.23;;
61869;SDS011;47810;42.264;23.826;2024-02-23T07:07:34;20.17;;;12.35;;
61869;SDS011;47810;42.264;23.826;2024-02-23T07:10:02;12.80;;;9.73;;
61869;SDS011;47810;42.264;23.826;2024-02-23T07:12:42;23.17;;;11.10;;
61869;SDS011;47810;42.264;23.826;2024-02-23T07:20:15;15.57;;;9.60;;
61869;SDS011;47810;42.264;23.826;2024-02-23T07:28:04;25.00;;;14.40;;
61869;SDS011;47810;42.264;23.826;2024-02-23T07:30:30;16.83;;;11.52;;
61869;SDS011;47810;42.264;23.826;2024-02-23T07:39:01;14.50;;;9.02;;
61869;SDS011;47810;42.264;23.826;2024-02-23T07:41:41;40.42;;;21.55;;
61869;SDS011;47810;42.264;23.826;2024-02-23T07:46:57;38.63;;;19.63;;
61869;SDS011;47810;42.264;23.826;2024-02-23T07:52:13;11.10;;;7.32;;
61869;SDS011;47810;42.264;23.826;2024-02-23T07:57:37;26.50;;;18.98;;
61869;SDS011;47810;42.264;23.826;2024-02-23T08:11:18;9.60;;;4.43;;
61869;SDS011;47810;42.264;23.826;2024-02-23T08:13:56;8.35;;;5.85;;
61869;SDS011;47810;42.264;23.826;2024-02-23T08:19:19;10.10;;;4.90;;
61869;SDS011;47810;42.264;23.826;2024-02-23T08:26:47;4.80;;;3.97;;
61869;SDS011;47810;42.264;23.826;2024-02-23T08:29:14;5.97;;;3.88;;
61869;SDS011;47810;42.264;23.826;2024-02-23T08:34:23;7.90;;;4.95;;
61869;SDS011;47810;42.264;23.826;2024-02-23T08:36:52;12.70;;;8.48;;
61869;SDS011;47810;42.264;23.826;2024-02-23T08:39:25;10.07;;;6.60;;
61869;SDS011;47810;42.264;23.826;2024-02-23T08:42:28;7.82;;;5.25;;
61869;SDS011;47810;42.264;23.826;2024-02-23T08:45:10;5.70;;;4.05;;
61869;SDS011;47810;42.264;23.826;2024-02-23T08:47:45;5.95;;;4.75;;
61869;SDS011;47810;42.264;23.826;2024-02-23T08:53:03;8.15;;;4.80;;
61869;SDS011;47810;42.264;23.826;2024-02-23T09:01:04;7.38;;;4.20;;
61869;SDS011;47810;42.264;23.826;2024-02-23T09:11:42;5.38;;;3.97;;
61869;SDS011;47810;42.264;23.826;2024-02-23T09:14:11;5.82;;;4.05;;
61869;SDS011;47810;42.264;23.826;2024-02-23T09:16:39;6.55;;;3.67;;
61869;SDS011;47810;42.264;23.826;2024-02-23T09:19:12;6.80;;;3.53;;
61869;SDS011;47810;42.264;23.826;2024-02-23T09:21:41;7.20;;;4.35;;
61869;SDS011;47810;42.264;23.826;2024-02-23T09:27:37;65.45;;;61.55;;
61869;SDS011;47810;42.264;23.826;2024-02-23T09:32:51;19.10;;;17.90;;
61869;SDS011;47810;42.264;23.826;2024-02-23T09:35:20;42.78;;;40.25;;
61869;SDS011;47810;42.264;23.826;2024-02-23T09:37:50;1999.90;;;999.90;;
61869;SDS011;47810;42.264;23.826;2024-02-23T09:40:27;1999.90;;;999.90;;
61869;SDS011;47810;42.264;23.826;2024-02-23T09:52:46;1999.90;;;999.90;;
61869;SDS011;47810;42.264;23.826;2024-02-23T09:57:57;1999.90;;;999.90;;
61869;SDS011;47810;42.264;23.826;2024-02-23T10:00:34;1999.90;;;999.90;;
61869;SDS011;47810;42.264;23.826;2024-02-23T10:08:44;530.42;;;477.48;;
61869;SDS011;47810;42.264;23.826;2024-02-23T10:13:56;1075.03;;;970.63;;
61869;SDS011;47810;42.264;23.826;2024-02-23T10:16:24;1132.50;;;999.90;;
61869;SDS011;47810;42.264;23.826;2024-02-23T10:18:57;1004.65;;;928.92;;
61869;SDS011;47810;42.264;23.826;2024-02-23T10:21:27;907.83;;;856.72;;
61869;SDS011;47810;42.264;23.826;2024-02-23T10:24:06;955.72;;;887.70;;
61869;SDS011;47810;42.264;23.826;2024-02-23T10:26:33;925.90;;;867.45;;
61869;SDS011;47810;42.264;23.826;2024-02-23T10:34:50;544.97;;;484.60;;
61869;SDS011;47810;42.264;23.826;2024-02-23T10:37:18;1076.25;;;570.33;;
61869;SDS011;47810;42.264;23.826;2024-02-23T10:42:38;310.55;;;286.05;;
61869;SDS011;47810;42.264;23.826;2024-02-23T10:45:08;1999.90;;;999.90;;
61869;SDS011;47810;42.264;23.826;2024-02-23T10:50:34;1999.90;;;999.90;;
61869;SDS011;47810;42.264;23.826;2024-02-23T10:56:16;1999.90;;;999.90;;
61869;SDS011;47810;42.264;23.826;2024-02-23T10:58:55;1999.90;;;999.90;;
61869;SDS011;47810;42.264;23.826;2024-02-23T11:01:27;1999.90;;;999.90;;
61869;SDS011;47810;42.264;23.826;2024-02-23T11:03:58;1999.90;;;999.90;;
61869;SDS011;47810;42.264;23.826;2024-02-23T11:06:33;1999.90;;;999.90;;
61869;SDS011;47810;42.264;23.826;2024-02-23T11:09:06;1999.90;;;999.90;;
61869;SDS011;47810;42.264;23.826;2024-02-23T11:11:36;1999.90;;;999.90;;
61869;SDS011;47810;42.264;23.826;2024-02-23T11:14:11;1153.63;;;639.78;;
61869;SDS011;47810;42.264;23.826;2024-02-23T11:22:53;355.98;;;342.70;;
61869;SDS011;47810;42.264;23.826;2024-02-23T11:25:21;335.77;;;324.40;;
61869;SDS011;47810;42.264;23.826;2024-02-23T11:27:53;388.77;;;375.83;;
61869;SDS011;47810;42.264;23.826;2024-02-23T11:30:19;243.80;;;235.98;;
61869;SDS011;47810;42.264;23.826;2024-02-23T11:32:58;400.95;;;386.33;;
61869;SDS011;47810;42.264;23.826;2024-02-23T11:38:23;66.82;;;64.38;;
61869;SDS011;47810;42.264;23.826;2024-02-23T11:40:51;70.10;;;67.38;;
61869;SDS011;47810;42.264;23.826;2024-02-23T11:43:27;3.72;;;2.47;;
61869;SDS011;47810;42.264;23.826;2024-02-23T11:45:55;12.45;;;11.60;;
61869;SDS011;47810;42.264;23.826;2024-02-23T11:48:30;3.47;;;3.17;;
61869;SDS011;47810;42.264;23.826;2024-02-23T11:53:42;33.45;;;31.85;;
61869;SDS011;47810;42.264;23.826;2024-02-23T11:59:04;3.38;;;2.80;;
61869;SDS011;47810;42.264;23.826;2024-02-23T12:01:49;3.63;;;2.20;;
61869;SDS011;47810;42.264;23.826;2024-02-23T12:04:16;4.90;;;2.80;;
61869;SDS011;47810;42.264;23.826;2024-02-23T12:06:42;9.07;;;5.38;;
61869;SDS011;47810;42.264;23.826;2024-02-23T12:11:57;5.20;;;2.55;;
61869;SDS011;47810;42.264;23.826;2024-02-23T12:14:30;4.32;;;3.13;;
61869;SDS011;47810;42.264;23.826;2024-02-23T12:17:08;3.38;;;2.40;;
61869;SDS011;47810;42.264;23.826;2024-02-23T12:19:49;5.00;;;3.05;;
61869;SDS011;47810;42.264;23.826;2024-02-23T12:25:03;3.97;;;2.83;;
61869;SDS011;47810;42.264;23.826;2024-02-23T12:27:36;5.72;;;2.67;;
61869;SDS011;47810;42.264;23.826;2024-02-23T12:30:15;4.15;;;2.70;;
61869;SDS011;47810;42.264;23.826;2024-02-23T12:32:46;3.25;;;2.13;;
61869;SDS011;47810;42.264;23.826;2024-02-23T12:35:13;2.92;;;1.65;;
61869;SDS011;47810;42.264;23.826;2024-02-23T12:40:14;4.45;;;2.60;;
61869;SDS011;47810;42.264;23.826;2024-02-23T12:43:05;4.53;;;2.85;;
61869;SDS011;47810;42.264;23.826;2024-02-23T12:48:03;3.47;;;2.40;;
61869;SDS011;47810;42.264;23.826;2024-02-23T12:56:32;7.72;;;4.47;;
61869;SDS011;47810;42.264;23.826;2024-02-23T13:02:21;5.55;;;3.70;;
61869;SDS011;47810;42.264;23.826;2024-02-23T13:05:17;4.40;;;2.92;;
61869;SDS011;47810;42.264;23.826;2024-02-23T13:10:41;3.00;;;2.20;;
61869;SDS011;47810;42.264;23.826;2024-02-23T13:13:17;5.82;;;2.90;;
61869;SDS011;47810;42.264;23.826;2024-02-23T13:18:52;5.28;;;3.05;;
61869;SDS011;47810;42.264;23.826;2024-02-23T13:24:38;4.93;;;2.78;;
61869;SDS011;47810;42.264;23.826;2024-02-23T13:44:20;6.45;;;3.92;;
61869;SDS011;47810;42.264;23.826;2024-02-23T13:47:00;6.03;;;3.65;;
61869;SDS011;47810;42.264;23.826;2024-02-23T13:49:38;5.35;;;3.58;;
61869;SDS011;47810;42.264;23.826;2024-02-23T13:57:56;17.48;;;10.95;;
61869;SDS011;47810;42.264;23.826;2024-02-23T14:00:32;13.80;;;9.05;;
61869;SDS011;47810;42.264;23.826;2024-02-23T14:02:58;11.15;;;6.45;;
61869;SDS011;47810;42.264;23.826;2024-02-23T14:11:27;5.55;;;4.43;;
61869;SDS011;47810;42.264;23.826;2024-02-23T14:13:59;8.93;;;5.35;;
61869;SDS011;47810;42.264;23.826;2024-02-23T14:19:04;5.80;;;4.53;;
61869;SDS011;47810;42.264;23.826;2024-02-23T14:21:30;10.63;;;9.35;;
61869;SDS011;47810;42.264;23.826;2024-02-23T14:24:11;12.10;;;6.20;;
61869;SDS011;47810;42.264;23.826;2024-02-23T14:26:41;8.27;;;5.93;;
61869;SDS011;47810;42.264;23.826;2024-02-23T14:29:13;8.00;;;5.18;;
61869;SDS011;47810;42.264;23.826;2024-02-23T14:36:45;8.85;;;4.63;;
61869;SDS011;47810;42.264;23.826;2024-02-23T14:39:13;5.47;;;3.53;;
61869;SDS011;47810;42.264;23.826;2024-02-23T14:41:47;6.00;;;3.92;;
61869;SDS011;47810;42.264;23.826;2024-02-23T14:44:15;7.38;;;4.65;;
61869;SDS011;47810;42.264;23.826;2024-02-23T14:46:56;7.20;;;5.07;;
61869;SDS011;47810;42.264;23.826;2024-02-23T14:49:31;5.40;;;4.57;;
61869;SDS011;47810;42.264;23.826;2024-02-23T14:52:04;6.40;;;4.40;;
61869;SDS011;47810;42.264;23.826;2024-02-23T14:54:37;9.40;;;7.20;;
61869;SDS011;47810;42.264;23.826;2024-02-23T14:59:49;15.07;;;13.93;;
61869;SDS011;47810;42.264;23.826;2024-02-23T15:05:13;9.85;;;5.70;;
61869;SDS011;47810;42.264;23.826;2024-02-23T15:10:16;20.30;;;18.48;;
61869;SDS011;47810;42.264;23.826;2024-02-23T15:18:37;208.65;;;201.35;;
61869;SDS011;47810;42.264;23.826;2024-02-23T15:21:15;283.05;;;271.77;;
61869;SDS011;47810;42.264;23.826;2024-02-23T15:23:43;12.00;;;10.20;;
61869;SDS011;47810;42.264;23.826;2024-02-23T15:26:11;326.27;;;310.80;;
61869;SDS011;47810;42.264;23.826;2024-02-23T15:28:44;212.05;;;200.38;;
61869;SDS011;47810;42.264;23.826;2024-02-23T15:31:15;301.20;;;275.23;;
61869;SDS011;47810;42.264;23.826;2024-02-23T15:33:40;482.48;;;455.08;;
61869;SDS011;47810;42.264;23.826;2024-02-23T15:36:06;1999.90;;;999.90;;
61869;SDS011;47810;42.264;23.826;2024-02-23T15:38:35;354.67;;;328.75;;
61869;SDS011;47810;42.264;23.826;2024-02-23T15:41:11;373.05;;;341.52;;
61869;SDS011;47810;42.264;23.826;2024-02-23T15:43:38;407.95;;;379.20;;
61869;SDS011;47810;42.264;23.826;2024-02-23T15:46:05;292.25;;;266.05;;
61869;SDS011;47810;42.264;23.826;2024-02-23T15:48:33;1247.53;;;726.85;;
61869;SDS011;47810;42.264;23.826;2024-02-23T15:51:01;857.58;;;574.30;;
61869;SDS011;47810;42.264;23.826;2024-02-23T15:53:28;1241.13;;;724.30;;
61869;SDS011;47810;42.264;23.826;2024-02-23T15:56:03;1999.90;;;999.90;;
61869;SDS011;47810;42.264;23.826;2024-02-23T15:58:31;796.75;;;519.90;;
61869;SDS011;47810;42.264;23.826;2024-02-23T16:00:59;1999.90;;;999.90;;
61869;SDS011;47810;42.264;23.826;2024-02-23T16:03:37;693.80;;;410.40;;
61869;SDS011;47810;42.264;23.826;2024-02-23T16:06:03;872.63;;;587.05;;
61869;SDS011;47810;42.264;23.826;2024-02-23T16:08:41;1161.43;;;630.50;;
61869;SDS011;47810;42.264;23.826;2024-02-23T16:11:09;1999.90;;;999.90;;
61869;SDS011;47810;42.264;23.826;2024-02-23T16:13:37;334.98;;;275.15;;
61869;SDS011;47810;42.264;23.826;2024-02-23T16:16:07;1999.90;;;999.90;;
61869;SDS011;47810;42.264;23.826;2024-02-23T16:18:39;859.45;;;572.08;;
61869;SDS011;47810;42.264;23.826;2024-02-23T16:21:06;1141.05;;;629.50;;
61869;SDS011;47810;42.264;23.826;2024-02-23T16:23:33;1999.90;;;999.90;;
61869;SDS011;47810;42.264;23.826;2024-02-23T16:26:02;467.67;;;427.25;;
61869;SDS011;47810;42.264;23.826;2024-02-23T16:28:30;1999.90;;;999.90;;
61869;SDS011;47810;42.264;23.826;2024-02-23T16:33:29;1999.90;;;999.90;;
61869;SDS011;47810;42.264;23.826;2024-02-23T16:36:01;1999.90;;;999.90;;
61869;SDS011;47810;42.264;23.826;2024-02-23T16:38:31;1096.15;;;588.53;;
61869;SDS011;47810;42.264;23.826;2024-02-23T16:41:05;1094.07;;;586.88;;
61869;SDS011;47810;42.264;23.826;2024-02-23T16:46:06;764.28;;;493.20;;
61869;SDS011;47810;42.264;23.826;2024-02-23T16:48:35;1999.90;;;999.90;;
61869;SDS011;47810;42.264;23.826;2024-02-23T16:51:01;780.17;;;504.38;;
61869;SDS011;47810;42.264;23.826;2024-02-23T16:53:39;1999.90;;;999.90;;
61869;SDS011;47810;42.264;23.826;2024-02-23T16:56:07;1580.75;;;825.75;;
61869;SDS011;47810;42.264;23.826;2024-02-23T16:58:32;233.30;;;214.23;;
61869;SDS011;47810;42.264;23.826;2024-02-23T17:01:13;373.75;;;325.63;;
61869;SDS011;47810;42.264;23.826;2024-02-23T17:03:40;1999.90;;;999.90;;
61869;SDS011;47810;42.264;23.826;2024-02-23T17:08:53;1999.90;;;999.90;;
61869;SDS011;47810;42.264;23.826;2024-02-23T17:11:23;1999.90;;;999.90;;
61869;SDS011;47810;42.264;23.826;2024-02-23T17:13:51;1187.15;;;669.20;;
61869;SDS011;47810;42.264;23.826;2024-02-23T17:16:17;1999.90;;;999.90;;
61869;SDS011;47810;42.264;23.826;2024-02-23T17:18:44;823.88;;;538.20;;
61869;SDS011;47810;42.264;23.826;2024-02-23T17:23:56;1999.90;;;999.90;;
61869;SDS011;47810;42.264;23.826;2024-02-23T17:31:48;1999.90;;;999.90;;
61869;SDS011;47810;42.264;23.826;2024-02-23T17:34:18;1999.90;;;999.90;;
61869;SDS011;47810;42.264;23.826;2024-02-23T17:36:44;1999.90;;;999.90;;
61869;SDS011;47810;42.264;23.826;2024-02-23T17:39:22;1999.90;;;999.90;;
61869;SDS011;47810;42.264;23.826;2024-02-23T17:41:56;1999.90;;;999.90;;
61869;SDS011;47810;42.264;23.826;2024-02-23T17:44:31;1540.70;;;787.88;;
61869;SDS011;47810;42.264;23.826;2024-02-23T17:46:57;370.23;;;333.10;;
61869;SDS011;47810;42.264;23.826;2024-02-23T17:49:22;1999.90;;;999.90;;
61869;SDS011;47810;42.264;23.826;2024-02-23T17:52:05;241.00;;;204.23;;
61869;SDS011;47810;42.264;23.826;2024-02-23T17:54:31;1999.90;;;999.90;;
61869;SDS011;47810;42.264;23.826;2024-02-23T17:56:59;1999.90;;;999.90;;
61869;SDS011;47810;42.264;23.826;2024-02-23T17:59:31;452.95;;;416.73;;
61869;SDS011;47810;42.264;23.826;2024-02-23T18:01:59;1999.90;;;999.90;;
61869;SDS011;47810;42.264;23.826;2024-02-23T18:04:45;1999.90;;;999.90;;
61869;SDS011;47810;42.264;23.826;2024-02-23T18:07:17;1999.90;;;999.90;;
61869;SDS011;47810;42.264;23.826;2024-02-23T18:09:52;1999.90;;;999.90;;
61869;SDS011;47810;42.264;23.826;2024-02-23T18:12:25;1999.90;;;999.90;;
61869;SDS011;47810;42.264;23.826;2024-02-23T18:14:55;1999.90;;;999.90;;
61869;SDS011;47810;42.264;23.826;2024-02-23T18:17:29;1999.90;;;999.90;;
61869;SDS011;47810;42.264;23.826;2024-02-23T18:19:59;1999.90;;;999.90;;
61869;SDS011;47810;42.264;23.826;2024-02-23T18:24:58;438.50;;;402.80;;
61869;SDS011;47810;42.264;23.826;2024-02-23T18:27:24;334.05;;;306.98;;
61869;SDS011;47810;42.264;23.826;2024-02-23T18:30:05;28.67;;;15.65;;
61869;SDS011;47810;42.264;23.826;2024-02-23T18:32:44;20.17;;;19.08;;
61869;SDS011;47810;42.264;23.826;2024-02-23T18:35:12;3.25;;;2.97;;
61869;SDS011;47810;42.264;23.826;2024-02-23T18:40:55;6.88;;;4.38;;
61869;SDS011;47810;42.264;23.826;2024-02-23T18:46:41;5.15;;;4.03;;
61869;SDS011;47810;42.264;23.826;2024-02-23T18:49:19;5.68;;;4.03;;
61869;SDS011;47810;42.264;23.826;2024-02-23T18:54:49;9.98;;;4.97;;
61869;SDS011;47810;42.264;23.826;2024-02-23T19:00:16;4.00;;;3.38;;
61869;SDS011;47810;42.264;23.826;2024-02-23T19:08:18;4.28;;;3.22;;
61869;SDS011;47810;42.264;23.826;2024-02-23T19:10:50;8.27;;;3.22;;
61869;SDS011;47810;42.264;23.826;2024-02-23T19:15:47;6.15;;;3.10;;
61869;SDS011;47810;42.264;23.826;2024-02-23T19:21:03;5.57;;;2.80;;
61869;SDS011;47810;42.264;23.826;2024-02-23T19:28:36;4.22;;;3.83;;
61869;SDS011;47810;42.264;23.826;2024-02-23T19:31:12;4.88;;;3.15;;
61869;SDS011;47810;42.264;23.826;2024-02-23T19:33:45;7.53;;;3.88;;
61869;SDS011;47810;42.264;23.826;2024-02-23T19:36:15;3.53;;;2.35;;
61869;SDS011;47810;42.264;23.826;2024-02-23T19:38:41;5.57;;;3.45;;
61869;SDS011;47810;42.264;23.826;2024-02-23T19:41:12;3.20;;;2.38;;
61869;SDS011;47810;42.264;23.826;2024-02-23T19:52:08;10.57;;;4.85;;
61869;SDS011;47810;42.264;23.826;2024-02-23T20:33:29;10.82;;;5.43;;
61869;SDS011;47810;42.264;23.826;2024-02-23T20:36:01;7.10;;;4.25;;
61869;SDS011;47810;42.264;23.826;2024-02-23T20:45:14;6.57;;;3.28;;
61869;SDS011;47810;42.264;23.826;2024-02-23T20:50:30;5.28;;;2.10;;
61869;SDS011;47810;42.264;23.826;2024-02-23T20:52:56;7.10;;;3.58;;
61869;SDS011;47810;42.264;23.826;2024-02-23T20:58:14;2.80;;;2.22;;
61869;SDS011;47810;42.264;23.826;2024-02-23T21:00:48;8.82;;;5.05;;
61869;SDS011;47810;42.264;23.826;2024-02-23T21:03:24;5.95;;;3.58;;
61869;SDS011;47810;42.264;23.826;2024-02-23T21:05:54;5.28;;;3.88;;
61869;SDS011;47810;42.264;23.826;2024-02-23T21:08:33;3.58;;;2.47;;
61869;SDS011;47810;42.264;23.826;2024-02-23T21:22:56;8.93;;;4.63;;
61869;SDS011;47810;42.264;23.826;2024-02-23T21:27:57;4.45;;;3.15;;
61869;SDS011;47810;42.264;23.826;2024-02-23T21:30:29;7.32;;;4.50;;
61869;SDS011;47810;42.264;23.826;2024-02-23T21:32:57;9.73;;;6.45;;
61869;SDS011;47810;42.264;23.826;2024-02-23T21:35:25;11.60;;;6.95;;
61869;SDS011;47810;42.264;23.826;2024-02-23T21:40:21;12.68;;;8.32;;
61869;SDS011;47810;42.264;23.826;2024-02-23T21:42:50;10.32;;;6.32;;
61869;SDS011;47810;42.264;23.826;2024-02-23T21:45:16;7.78;;;6.03;;
61869;SDS011;47810;42.264;23.826;2024-02-23T21:50:31;4.70;;;3.00;;
61869;SDS011;47810;42.264;23.826;2024-02-23T21:52:58;10.25;;;5.05;;
61869;SDS011;47810;42.264;23.826;2024-02-23T21:55:34;8.48;;;4.43;;
61869;SDS011;47810;42.264;23.826;2024-02-23T22:00:31;11.52;;;5.20;;
61869;SDS011;47810;42.264;23.826;2024-02-23T22:03:13;8.77;;;4.97;;
61869;SDS011;47810;42.264;23.826;2024-02-23T22:05:40;5.50;;;4.68;;
61869;SDS011;47810;42.264;23.826;2024-02-23T22:08:05;10.20;;;5.22;;
61869;SDS011;47810;42.264;23.826;2024-02-23T22:10:35;7.07;;;3.47;;
61869;SDS011;47810;42.264;23.826;2024-02-23T22:13:10;4.82;;;3.13;;
61869;SDS011;47810;42.264;23.826;2024-02-23T22:18:23;5.55;;;2.53;;
61869;SDS011;47810;42.264;23.826;2024-02-23T22:20:49;6.20;;;3.63;;
61869;SDS011;47810;42.264;23.826;2024-02-23T22:23:19;3.03;;;2.75;;
61869;SDS011;47810;42.264;23.826;2024-02-23T22:25:47;9.80;;;4.60;;
61869;SDS011;47810;42.264;23.826;2024-02-23T22:28:14;6.93;;;3.92;;